sensor_id;sensor_type;location;lat;lon;timestamp;temperature;humidity
15906;DHT22;8051;50.820;4.884;2023-10-31T00:00:30;10.00;99.90
15906;DHT22;8051;50.820;4.884;2023-10-31T00:02:58;10.00;99.90
15906;DHT22;8051;50.820;4.884;2023-10-31T00:05:27;10.00;99.90
15906;DHT22;8051;50.820;4.884;2023-10-31T00:07:54;9.90;99.90
15906;DHT22;8051;50.820;4.884;2023-10-31T00:10:22;9.90;99.90
15906;DHT22;8051;50.820;4.884;2023-10-31T00:12:49;9.90;99.90
15906;DHT22;8051;50.820;4.884;2023-10-31T00:15:17;9.90;99.90
15906;DHT22;8051;50.820;4.884;2023-10-31T00:17:44;9.90;99.90
15906;DHT22;8051;50.820;4.884;2023-10-31T00:20:12;10.00;99.90
15906;DHT22;8051;50.820;4.884;2023-10-31T00:22:41;10.00;99.90
15906;DHT22;8051;50.820;4.884;2023-10-31T00:25:08;10.00;99.90
15906;DHT22;8051;50.820;4.884;2023-10-31T00:27:36;10.10;99.90
15906;DHT22;8051;50.820;4.884;2023-10-31T00:30:04;10.10;99.90
15906;DHT22;8051;50.820;4.884;2023-10-31T00:32:32;10.10;99.90
15906;DHT22;8051;50.820;4.884;2023-10-31T00:34:59;10.10;99.90
15906;DHT22;8051;50.820;4.884;2023-10-31T00:37:27;10.10;99.90
15906;DHT22;8051;50.820;4.884;2023-10-31T00:39:56;10.10;99.90
15906;DHT22;8051;50.820;4.884;2023-10-31T00:42:23;10.10;99.90
15906;DHT22;8051;50.820;4.884;2023-10-31T00:44:51;10.20;99.90
15906;DHT22;8051;50.820;4.884;2023-10-31T00:47:18;10.10;99.90
15906;DHT22;8051;50.820;4.884;2023-10-31T00:49:46;10.10;99.90
15906;DHT22;8051;50.820;4.884;2023-10-31T00:52:13;10.20;99.90
15906;DHT22;8051;50.820;4.884;2023-10-31T00:54:41;10.20;99.90
15906;DHT22;8051;50.820;4.884;2023-10-31T00:57:09;10.10;99.90
15906;DHT22;8051;50.820;4.884;2023-10-31T00:59:37;10.20;99.90
15906;DHT22;8051;50.820;4.884;2023-10-31T01:02:05;10.10;99.90
15906;DHT22;8051;50.820;4.884;2023-10-31T01:04:32;10.10;99.90
15906;DHT22;8051;50.820;4.884;2023-10-31T01:07:00;10.10;99.90
15906;DHT22;8051;50.820;4.884;2023-10-31T01:09:27;10.10;99.90
15906;DHT22;8051;50.820;4.884;2023-10-31T01:11:55;10.10;99.90
15906;DHT22;8051;50.820;4.884;2023-10-31T01:14:24;10.10;99.90
15906;DHT22;8051;50.820;4.884;2023-10-31T01:16:51;10.10;99.90
15906;DHT22;8051;50.820;4.884;2023-10-31T01:19:18;10.10;99.90
15906;DHT22;8051;50.820;4.884;2023-10-31T01:21:46;10.10;99.90
15906;DHT22;8051;50.820;4.884;2023-10-31T01:24:13;10.10;99.90
15906;DHT22;8051;50.820;4.884;2023-10-31T01:26:41;10.10;99.90
15906;DHT22;8051;50.820;4.884;2023-10-31T01:29:08;10.10;99.90
15906;DHT22;8051;50.820;4.884;2023-10-31T01:31:37;10.20;99.90
15906;DHT22;8051;50.820;4.884;2023-10-31T01:34:08;10.20;99.90
15906;DHT22;8051;50.820;4.884;2023-10-31T01:36:35;10.20;99.90
15906;DHT22;8051;50.820;4.884;2023-10-31T01:39:03;10.20;99.90
15906;DHT22;8051;50.820;4.884;2023-10-31T01:41:30;10.30;99.90
15906;DHT22;8051;50.820;4.884;2023-10-31T01:43:58;10.30;99.90
15906;DHT22;8051;50.820;4.884;2023-10-31T01:46:25;10.30;99.90
15906;DHT22;8051;50.820;4.884;2023-10-31T01:48:54;10.30;99.90
15906;DHT22;8051;50.820;4.884;2023-10-31T01:51:22;10.30;99.90
15906;DHT22;8051;50.820;4.884;2023-10-31T01:53:49;10.40;99.90
15906;DHT22;8051;50.820;4.884;2023-10-31T01:56:17;10.40;99.90
15906;DHT22;8051;50.820;4.884;2023-10-31T01:58:44;10.40;99.90
15906;DHT22;8051;50.820;4.884;2023-10-31T02:01:12;10.40;99.90
15906;DHT22;8051;50.820;4.884;2023-10-31T02:03:40;10.40;99.90
15906;DHT22;8051;50.820;4.884;2023-10-31T02:06:09;10.40;99.90
15906;DHT22;8051;50.820;4.884;2023-10-31T02:08:36;10.40;99.90
15906;DHT22;8051;50.820;4.884;2023-10-31T02:11:04;10.40;99.90
15906;DHT22;8051;50.820;4.884;2023-10-31T02:13:36;10.40;99.90
15906;DHT22;8051;50.820;4.884;2023-10-31T02:16:06;10.40;99.90
15906;DHT22;8051;50.820;4.884;2023-10-31T02:18:33;10.40;99.90
15906;DHT22;8051;50.820;4.884;2023-10-31T02:21:01;10.30;99.90
15906;DHT22;8051;50.820;4.884;2023-10-31T02:23:30;10.30;99.90
15906;DHT22;8051;50.820;4.884;2023-10-31T02:25:57;10.20;99.90
15906;DHT22;8051;50.820;4.884;2023-10-31T02:28:25;10.10;99.90
15906;DHT22;8051;50.820;4.884;2023-10-31T02:30:53;10.00;99.90
15906;DHT22;8051;50.820;4.884;2023-10-31T02:33:21;9.90;99.90
15906;DHT22;8051;50.820;4.884;2023-10-31T02:35:49;9.90;99.90
15906;DHT22;8051;50.820;4.884;2023-10-31T02:38:16;9.80;99.90
15906;DHT22;8051;50.820;4.884;2023-10-31T02:40:45;9.70;99.90
15906;DHT22;8051;50.820;4.884;2023-10-31T02:43:13;9.70;99.90
15906;DHT22;8051;50.820;4.884;2023-10-31T02:45:40;9.60;99.90
15906;DHT22;8051;50.820;4.884;2023-10-31T02:48:07;9.60;99.90
15906;DHT22;8051;50.820;4.884;2023-10-31T02:50:35;9.60;99.90
15906;DHT22;8051;50.820;4.884;2023-10-31T02:53:02;9.50;99.90
15906;DHT22;8051;50.820;4.884;2023-10-31T02:55:30;9.50;99.90
15906;DHT22;8051;50.820;4.884;2023-10-31T02:57:59;9.60;99.90
15906;DHT22;8051;50.820;4.884;2023-10-31T03:00:26;9.60;99.90
15906;DHT22;8051;50.820;4.884;2023-10-31T03:02:53;9.60;99.90
15906;DHT22;8051;50.820;4.884;2023-10-31T03:05:21;9.50;99.90
15906;DHT22;8051;50.820;4.884;2023-10-31T03:07:48;9.50;99.90
15906;DHT22;8051;50.820;4.884;2023-10-31T03:10:16;9.50;99.90
15906;DHT22;8051;50.820;4.884;2023-10-31T03:12:43;9.60;99.90
15906;DHT22;8051;50.820;4.884;2023-10-31T03:15:12;9.70;99.90
15906;DHT22;8051;50.820;4.884;2023-10-31T03:17:40;9.70;99.90
15906;DHT22;8051;50.820;4.884;2023-10-31T03:20:08;9.70;99.90
15906;DHT22;8051;50.820;4.884;2023-10-31T03:22:36;9.60;99.90
15906;DHT22;8051;50.820;4.884;2023-10-31T03:25:04;9.60;99.90
15906;DHT22;8051;50.820;4.884;2023-10-31T03:27:32;9.60;99.90
15906;DHT22;8051;50.820;4.884;2023-10-31T03:29:59;9.60;99.90
15906;DHT22;8051;50.820;4.884;2023-10-31T03:32:28;9.50;99.90
15906;DHT22;8051;50.820;4.884;2023-10-31T03:34:56;9.50;99.90
15906;DHT22;8051;50.820;4.884;2023-10-31T03:37:23;9.50;99.90
15906;DHT22;8051;50.820;4.884;2023-10-31T03:39:51;9.50;99.90
15906;DHT22;8051;50.820;4.884;2023-10-31T03:42:18;9.50;99.90
15906;DHT22;8051;50.820;4.884;2023-10-31T03:44:45;9.50;99.90
15906;DHT22;8051;50.820;4.884;2023-10-31T03:47:13;9.50;99.90
15906;DHT22;8051;50.820;4.884;2023-10-31T03:49:42;9.50;99.90
15906;DHT22;8051;50.820;4.884;2023-10-31T03:52:09;9.50;99.90
15906;DHT22;8051;50.820;4.884;2023-10-31T03:54:37;9.50;99.90
15906;DHT22;8051;50.820;4.884;2023-10-31T03:57:04;9.50;99.90
15906;DHT22;8051;50.820;4.884;2023-10-31T03:59:32;9.50;99.90
15906;DHT22;8051;50.820;4.884;2023-10-31T04:01:59;9.50;99.90
15906;DHT22;8051;50.820;4.884;2023-10-31T04:04:27;9.50;99.90
15906;DHT22;8051;50.820;4.884;2023-10-31T04:06:56;9.50;99.90
15906;DHT22;8051;50.820;4.884;2023-10-31T04:09:23;9.40;99.90
15906;DHT22;8051;50.820;4.884;2023-10-31T04:11:50;9.40;99.90
15906;DHT22;8051;50.820;4.884;2023-10-31T04:14:18;9.40;99.90
15906;DHT22;8051;50.820;4.884;2023-10-31T04:16:45;9.40;99.90
15906;DHT22;8051;50.820;4.884;2023-10-31T04:19:13;9.40;99.90
15906;DHT22;8051;50.820;4.884;2023-10-31T04:21:40;9.40;99.90
15906;DHT22;8051;50.820;4.884;2023-10-31T04:24:08;9.40;99.90
15906;DHT22;8051;50.820;4.884;2023-10-31T04:26:36;9.40;99.90
15906;DHT22;8051;50.820;4.884;2023-10-31T04:29:03;9.30;99.90
15906;DHT22;8051;50.820;4.884;2023-10-31T04:31:31;9.30;99.90
15906;DHT22;8051;50.820;4.884;2023-10-31T04:33:58;9.30;99.90
15906;DHT22;8051;50.820;4.884;2023-10-31T04:36:26;9.30;99.90
15906;DHT22;8051;50.820;4.884;2023-10-31T04:38:54;9.30;99.90
15906;DHT22;8051;50.820;4.884;2023-10-31T04:41:22;9.20;99.90
15906;DHT22;8051;50.820;4.884;2023-10-31T04:43:50;9.20;99.90
15906;DHT22;8051;50.820;4.884;2023-10-31T04:46:18;9.10;99.90
15906;DHT22;8051;50.820;4.884;2023-10-31T04:48:45;9.10;99.90
15906;DHT22;8051;50.820;4.884;2023-10-31T04:51:12;9.10;99.90
15906;DHT22;8051;50.820;4.884;2023-10-31T04:53:40;9.10;99.90
15906;DHT22;8051;50.820;4.884;2023-10-31T04:56:12;9.00;99.90
15906;DHT22;8051;50.820;4.884;2023-10-31T04:58:42;9.00;99.90
15906;DHT22;8051;50.820;4.884;2023-10-31T05:01:09;9.00;99.90
15906;DHT22;8051;50.820;4.884;2023-10-31T05:03:37;9.00;99.90
15906;DHT22;8051;50.820;4.884;2023-10-31T05:06:05;9.10;99.90
15906;DHT22;8051;50.820;4.884;2023-10-31T05:08:32;9.10;99.90
15906;DHT22;8051;50.820;4.884;2023-10-31T05:11:00;9.10;99.90
15906;DHT22;8051;50.820;4.884;2023-10-31T05:13:27;9.00;99.90
15906;DHT22;8051;50.820;4.884;2023-10-31T05:15:56;9.10;99.90
15906;DHT22;8051;50.820;4.884;2023-10-31T05:18:23;9.10;99.90
15906;DHT22;8051;50.820;4.884;2023-10-31T05:20:51;9.20;99.90
15906;DHT22;8051;50.820;4.884;2023-10-31T05:23:18;9.20;99.90
15906;DHT22;8051;50.820;4.884;2023-10-31T05:25:46;9.20;99.90
15906;DHT22;8051;50.820;4.884;2023-10-31T05:28:13;9.30;99.90
15906;DHT22;8051;50.820;4.884;2023-10-31T05:30:41;9.30;99.90
15906;DHT22;8051;50.820;4.884;2023-10-31T05:33:10;9.30;99.90
15906;DHT22;8051;50.820;4.884;2023-10-31T05:35:37;9.30;99.90
15906;DHT22;8051;50.820;4.884;2023-10-31T05:38:05;9.30;99.90
15906;DHT22;8051;50.820;4.884;2023-10-31T05:40:32;9.20;99.90
15906;DHT22;8051;50.820;4.884;2023-10-31T05:43:01;9.20;99.90
15906;DHT22;8051;50.820;4.884;2023-10-31T05:45:29;9.30;99.90
15906;DHT22;8051;50.820;4.884;2023-10-31T05:47:57;9.30;99.90
15906;DHT22;8051;50.820;4.884;2023-10-31T05:50:26;9.40;99.90
15906;DHT22;8051;50.820;4.884;2023-10-31T05:52:53;9.40;99.90
15906;DHT22;8051;50.820;4.884;2023-10-31T05:55:20;9.30;99.90
15906;DHT22;8051;50.820;4.884;2023-10-31T05:57:48;9.30;99.90
15906;DHT22;8051;50.820;4.884;2023-10-31T06:00:16;9.30;99.90
15906;DHT22;8051;50.820;4.884;2023-10-31T06:02:44;9.40;99.90
15906;DHT22;8051;50.820;4.884;2023-10-31T06:05:10;9.50;99.90
15906;DHT22;8051;50.820;4.884;2023-10-31T06:07:39;9.50;99.90
15906;DHT22;8051;50.820;4.884;2023-10-31T06:10:08;9.50;99.90
15906;DHT22;8051;50.820;4.884;2023-10-31T06:12:35;9.60;99.90
15906;DHT22;8051;50.820;4.884;2023-10-31T06:15:03;9.60;99.90
15906;DHT22;8051;50.820;4.884;2023-10-31T06:17:31;9.70;99.90
15906;DHT22;8051;50.820;4.884;2023-10-31T06:20:01;9.60;99.90
15906;DHT22;8051;50.820;4.884;2023-10-31T06:22:28;9.60;99.90
15906;DHT22;8051;50.820;4.884;2023-10-31T06:24:57;9.70;99.90
15906;DHT22;8051;50.820;4.884;2023-10-31T06:27:25;9.60;99.90
15906;DHT22;8051;50.820;4.884;2023-10-31T06:29:52;9.60;99.90
15906;DHT22;8051;50.820;4.884;2023-10-31T06:32:21;9.60;99.90
15906;DHT22;8051;50.820;4.884;2023-10-31T06:34:48;9.60;99.90
15906;DHT22;8051;50.820;4.884;2023-10-31T06:37:16;9.60;99.90
15906;DHT22;8051;50.820;4.884;2023-10-31T06:39:43;9.60;99.90
15906;DHT22;8051;50.820;4.884;2023-10-31T06:42:12;9.60;99.90
15906;DHT22;8051;50.820;4.884;2023-10-31T06:44:40;9.60;99.90
15906;DHT22;8051;50.820;4.884;2023-10-31T06:47:07;9.60;99.90
15906;DHT22;8051;50.820;4.884;2023-10-31T06:49:35;9.70;99.90
15906;DHT22;8051;50.820;4.884;2023-10-31T06:52:03;9.70;99.90
15906;DHT22;8051;50.820;4.884;2023-10-31T06:54:31;9.80;99.90
15906;DHT22;8051;50.820;4.884;2023-10-31T06:56:58;9.80;99.90
15906;DHT22;8051;50.820;4.884;2023-10-31T06:59:28;9.80;99.90
15906;DHT22;8051;50.820;4.884;2023-10-31T07:01:57;9.80;99.90
15906;DHT22;8051;50.820;4.884;2023-10-31T07:04:24;9.80;99.90
15906;DHT22;8051;50.820;4.884;2023-10-31T07:06:51;9.80;99.90
15906;DHT22;8051;50.820;4.884;2023-10-31T07:09:23;9.80;99.90
15906;DHT22;8051;50.820;4.884;2023-10-31T07:11:50;9.80;99.90
15906;DHT22;8051;50.820;4.884;2023-10-31T07:14:18;9.90;99.90
15906;DHT22;8051;50.820;4.884;2023-10-31T07:16:47;9.90;99.90
15906;DHT22;8051;50.820;4.884;2023-10-31T07:19:15;9.90;99.90
15906;DHT22;8051;50.820;4.884;2023-10-31T07:21:42;9.90;99.90
15906;DHT22;8051;50.820;4.884;2023-10-31T07:24:10;10.00;99.90
15906;DHT22;8051;50.820;4.884;2023-10-31T07:26:37;10.00;99.90
15906;DHT22;8051;50.820;4.884;2023-10-31T07:29:05;9.90;99.90
15906;DHT22;8051;50.820;4.884;2023-10-31T07:31:33;9.90;99.90
15906;DHT22;8051;50.820;4.884;2023-10-31T07:34:05;9.90;99.90
15906;DHT22;8051;50.820;4.884;2023-10-31T07:36:34;9.90;99.90
15906;DHT22;8051;50.820;4.884;2023-10-31T07:39:01;10.00;99.90
15906;DHT22;8051;50.820;4.884;2023-10-31T07:41:30;10.00;99.90
15906;DHT22;8051;50.820;4.884;2023-10-31T07:43:57;10.00;99.90
15906;DHT22;8051;50.820;4.884;2023-10-31T07:46:25;10.00;99.90
15906;DHT22;8051;50.820;4.884;2023-10-31T07:48:52;10.10;99.90
15906;DHT22;8051;50.820;4.884;2023-10-31T07:51:21;10.10;99.90
15906;DHT22;8051;50.820;4.884;2023-10-31T07:53:48;10.30;99.90
15906;DHT22;8051;50.820;4.884;2023-10-31T07:56:16;10.40;99.90
15906;DHT22;8051;50.820;4.884;2023-10-31T07:58:48;10.50;99.90
15906;DHT22;8051;50.820;4.884;2023-10-31T08:01:17;10.60;99.90
15906;DHT22;8051;50.820;4.884;2023-10-31T08:03:45;10.60;99.90
15906;DHT22;8051;50.820;4.884;2023-10-31T08:06:13;10.60;99.90
15906;DHT22;8051;50.820;4.884;2023-10-31T08:08:43;10.70;99.90
15906;DHT22;8051;50.820;4.884;2023-10-31T08:11:10;10.70;99.90
15906;DHT22;8051;50.820;4.884;2023-10-31T08:13:38;10.70;99.90
15906;DHT22;8051;50.820;4.884;2023-10-31T08:16:06;10.60;99.90
15906;DHT22;8051;50.820;4.884;2023-10-31T08:18:34;10.60;99.90
15906;DHT22;8051;50.820;4.884;2023-10-31T08:21:02;10.60;99.90
15906;DHT22;8051;50.820;4.884;2023-10-31T08:23:30;10.50;99.90
15906;DHT22;8051;50.820;4.884;2023-10-31T08:25:59;10.50;99.90
15906;DHT22;8051;50.820;4.884;2023-10-31T08:28:26;10.60;99.90
15906;DHT22;8051;50.820;4.884;2023-10-31T08:30:54;10.70;99.90
15906;DHT22;8051;50.820;4.884;2023-10-31T08:33:22;10.60;99.90
15906;DHT22;8051;50.820;4.884;2023-10-31T08:35:49;10.70;99.90
15906;DHT22;8051;50.820;4.884;2023-10-31T08:38:17;10.70;99.90
15906;DHT22;8051;50.820;4.884;2023-10-31T08:40:44;10.80;99.90
15906;DHT22;8051;50.820;4.884;2023-10-31T08:43:16;10.90;99.90
15906;DHT22;8051;50.820;4.884;2023-10-31T08:45:43;10.90;99.90
15906;DHT22;8051;50.820;4.884;2023-10-31T08:48:11;10.90;99.90
15906;DHT22;8051;50.820;4.884;2023-10-31T08:50:38;10.80;99.90
15906;DHT22;8051;50.820;4.884;2023-10-31T08:53:06;10.90;99.90
15906;DHT22;8051;50.820;4.884;2023-10-31T08:55:33;11.10;99.90
15906;DHT22;8051;50.820;4.884;2023-10-31T08:58:01;11.40;99.90
15906;DHT22;8051;50.820;4.884;2023-10-31T09:00:30;11.50;99.90
15906;DHT22;8051;50.820;4.884;2023-10-31T09:02:57;11.60;99.90
15906;DHT22;8051;50.820;4.884;2023-10-31T09:05:25;11.60;99.90
15906;DHT22;8051;50.820;4.884;2023-10-31T09:07:52;11.60;99.90
15906;DHT22;8051;50.820;4.884;2023-10-31T09:10:20;11.60;99.90
15906;DHT22;8051;50.820;4.884;2023-10-31T09:12:47;11.60;99.90
15906;DHT22;8051;50.820;4.884;2023-10-31T09:15:15;11.80;99.90
15906;DHT22;8051;50.820;4.884;2023-10-31T09:17:44;11.90;99.90
15906;DHT22;8051;50.820;4.884;2023-10-31T09:20:12;12.10;99.90
15906;DHT22;8051;50.820;4.884;2023-10-31T09:22:40;12.00;99.90
15906;DHT22;8051;50.820;4.884;2023-10-31T09:25:08;12.00;99.90
15906;DHT22;8051;50.820;4.884;2023-10-31T09:27:37;12.00;99.90
15906;DHT22;8051;50.820;4.884;2023-10-31T09:30:07;12.00;99.90
15906;DHT22;8051;50.820;4.884;2023-10-31T09:32:34;11.90;99.90
15906;DHT22;8051;50.820;4.884;2023-10-31T09:35:04;11.70;99.90
15906;DHT22;8051;50.820;4.884;2023-10-31T09:37:31;11.60;99.90
15906;DHT22;8051;50.820;4.884;2023-10-31T09:39:59;11.50;99.90
15906;DHT22;8051;50.820;4.884;2023-10-31T09:42:26;11.60;99.90
15906;DHT22;8051;50.820;4.884;2023-10-31T09:44:54;11.50;99.90
15906;DHT22;8051;50.820;4.884;2023-10-31T09:47:22;11.50;99.90
15906;DHT22;8051;50.820;4.884;2023-10-31T09:49:49;11.60;99.90
15906;DHT22;8051;50.820;4.884;2023-10-31T09:52:18;11.60;99.90
15906;DHT22;8051;50.820;4.884;2023-10-31T09:54:47;11.70;99.90
15906;DHT22;8051;50.820;4.884;2023-10-31T09:57:16;11.80;99.90
15906;DHT22;8051;50.820;4.884;2023-10-31T09:59:44;11.90;99.90
15906;DHT22;8051;50.820;4.884;2023-10-31T10:02:11;12.00;99.90
15906;DHT22;8051;50.820;4.884;2023-10-31T10:04:39;12.20;99.90
15906;DHT22;8051;50.820;4.884;2023-10-31T10:07:06;12.30;99.90
15906;DHT22;8051;50.820;4.884;2023-10-31T10:09:35;12.60;99.90
15906;DHT22;8051;50.820;4.884;2023-10-31T10:12:05;12.70;99.90
15906;DHT22;8051;50.820;4.884;2023-10-31T10:14:33;12.70;99.90
15906;DHT22;8051;50.820;4.884;2023-10-31T10:17:01;12.80;99.90
15906;DHT22;8051;50.820;4.884;2023-10-31T10:19:28;12.90;99.90
15906;DHT22;8051;50.820;4.884;2023-10-31T10:21:57;12.80;99.90
15906;DHT22;8051;50.820;4.884;2023-10-31T10:24:25;13.00;99.90
15906;DHT22;8051;50.820;4.884;2023-10-31T10:26:54;13.10;99.90
15906;DHT22;8051;50.820;4.884;2023-10-31T10:29:21;13.10;99.90
15906;DHT22;8051;50.820;4.884;2023-10-31T10:31:49;12.90;99.90
15906;DHT22;8051;50.820;4.884;2023-10-31T10:34:16;12.80;99.90
15906;DHT22;8051;50.820;4.884;2023-10-31T10:36:47;12.60;99.90
15906;DHT22;8051;50.820;4.884;2023-10-31T10:39:19;12.60;99.90
15906;DHT22;8051;50.820;4.884;2023-10-31T10:41:53;12.40;99.90
15906;DHT22;8051;50.820;4.884;2023-10-31T10:44:29;12.40;99.90
15906;DHT22;8051;50.820;4.884;2023-10-31T10:46:58;12.50;99.90
15906;DHT22;8051;50.820;4.884;2023-10-31T10:49:29;12.40;99.90
15906;DHT22;8051;50.820;4.884;2023-10-31T10:52:04;12.40;99.90
15906;DHT22;8051;50.820;4.884;2023-10-31T10:54:41;12.40;99.90
15906;DHT22;8051;50.820;4.884;2023-10-31T10:57:14;12.30;99.90
15906;DHT22;8051;50.820;4.884;2023-10-31T10:59:45;12.40;99.90
15906;DHT22;8051;50.820;4.884;2023-10-31T11:02:20;12.50;99.90
15906;DHT22;8051;50.820;4.884;2023-10-31T11:04:47;12.60;99.90
15906;DHT22;8051;50.820;4.884;2023-10-31T11:07:16;12.60;99.90
15906;DHT22;8051;50.820;4.884;2023-10-31T11:09:45;12.60;99.90
15906;DHT22;8051;50.820;4.884;2023-10-31T11:12:15;12.80;99.90
15906;DHT22;8051;50.820;4.884;2023-10-31T11:14:44;12.90;99.90
15906;DHT22;8051;50.820;4.884;2023-10-31T11:17:18;13.00;99.90
15906;DHT22;8051;50.820;4.884;2023-10-31T11:19:49;13.10;99.90
15906;DHT22;8051;50.820;4.884;2023-10-31T11:22:17;13.20;99.90
15906;DHT22;8051;50.820;4.884;2023-10-31T11:24:45;13.20;99.90
15906;DHT22;8051;50.820;4.884;2023-10-31T11:27:12;13.10;99.90
15906;DHT22;8051;50.820;4.884;2023-10-31T11:29:42;13.10;99.90
15906;DHT22;8051;50.820;4.884;2023-10-31T11:32:09;13.20;99.90
15906;DHT22;8051;50.820;4.884;2023-10-31T11:34:38;13.20;99.90
15906;DHT22;8051;50.820;4.884;2023-10-31T11:37:25;13.30;99.90
15906;DHT22;8051;50.820;4.884;2023-10-31T11:40:20;13.30;99.90
15906;DHT22;8051;50.820;4.884;2023-10-31T11:42:50;13.20;99.90
15906;DHT22;8051;50.820;4.884;2023-10-31T11:45:27;13.10;99.90
15906;DHT22;8051;50.820;4.884;2023-10-31T11:47:55;12.90;99.90
15906;DHT22;8051;50.820;4.884;2023-10-31T11:50:24;12.70;99.90
15906;DHT22;8051;50.820;4.884;2023-10-31T11:53:05;12.60;99.90
15906;DHT22;8051;50.820;4.884;2023-10-31T11:55:36;12.70;99.90
15906;DHT22;8051;50.820;4.884;2023-10-31T11:58:17;12.70;99.90
15906;DHT22;8051;50.820;4.884;2023-10-31T12:00:48;12.80;99.90
15906;DHT22;8051;50.820;4.884;2023-10-31T12:03:17;12.70;99.90
15906;DHT22;8051;50.820;4.884;2023-10-31T12:05:52;12.80;99.90
15906;DHT22;8051;50.820;4.884;2023-10-31T12:08:30;12.70;99.90
15906;DHT22;8051;50.820;4.884;2023-10-31T12:11:08;12.70;99.90
15906;DHT22;8051;50.820;4.884;2023-10-31T12:13:38;12.80;99.90
15906;DHT22;8051;50.820;4.884;2023-10-31T12:16:08;12.70;99.90
15906;DHT22;8051;50.820;4.884;2023-10-31T12:18:37;12.70;99.90
15906;DHT22;8051;50.820;4.884;2023-10-31T12:21:06;12.60;99.90
15906;DHT22;8051;50.820;4.884;2023-10-31T12:23:36;12.50;99.90
15906;DHT22;8051;50.820;4.884;2023-10-31T12:26:04;12.40;99.90
15906;DHT22;8051;50.820;4.884;2023-10-31T12:28:31;12.50;99.90
15906;DHT22;8051;50.820;4.884;2023-10-31T12:30:59;12.70;99.90
15906;DHT22;8051;50.820;4.884;2023-10-31T12:33:28;12.70;99.90
15906;DHT22;8051;50.820;4.884;2023-10-31T12:35:58;12.70;99.90
15906;DHT22;8051;50.820;4.884;2023-10-31T12:38:27;12.70;99.90
15906;DHT22;8051;50.820;4.884;2023-10-31T12:40:55;12.80;99.90
15906;DHT22;8051;50.820;4.884;2023-10-31T12:43:24;12.70;99.90
15906;DHT22;8051;50.820;4.884;2023-10-31T12:45:53;12.80;99.90
15906;DHT22;8051;50.820;4.884;2023-10-31T12:48:24;12.70;99.90
15906;DHT22;8051;50.820;4.884;2023-10-31T12:51:06;12.50;99.90
15906;DHT22;8051;50.820;4.884;2023-10-31T12:53:34;12.20;99.90
15906;DHT22;8051;50.820;4.884;2023-10-31T12:56:02;11.90;99.90
15906;DHT22;8051;50.820;4.884;2023-10-31T12:58:30;11.90;99.90
15906;DHT22;8051;50.820;4.884;2023-10-31T13:00:57;11.80;99.90
15906;DHT22;8051;50.820;4.884;2023-10-31T13:03:25;11.70;99.90
15906;DHT22;8051;50.820;4.884;2023-10-31T13:05:54;11.70;99.90
15906;DHT22;8051;50.820;4.884;2023-10-31T13:08:22;11.70;99.90
15906;DHT22;8051;50.820;4.884;2023-10-31T13:10:50;11.60;99.90
15906;DHT22;8051;50.820;4.884;2023-10-31T13:13:18;11.60;99.90
15906;DHT22;8051;50.820;4.884;2023-10-31T13:15:46;11.50;99.90
15906;DHT22;8051;50.820;4.884;2023-10-31T13:18:14;11.50;99.90
15906;DHT22;8051;50.820;4.884;2023-10-31T13:20:41;11.50;99.90
15906;DHT22;8051;50.820;4.884;2023-10-31T13:23:10;11.50;99.90
15906;DHT22;8051;50.820;4.884;2023-10-31T13:25:38;11.60;99.90
15906;DHT22;8051;50.820;4.884;2023-10-31T13:28:05;11.70;99.90
15906;DHT22;8051;50.820;4.884;2023-10-31T13:30:37;11.80;99.90
15906;DHT22;8051;50.820;4.884;2023-10-31T13:33:05;11.90;99.90
15906;DHT22;8051;50.820;4.884;2023-10-31T13:35:33;12.00;99.90
15906;DHT22;8051;50.820;4.884;2023-10-31T13:38:02;12.10;99.90
15906;DHT22;8051;50.820;4.884;2023-10-31T13:40:31;12.10;99.90
15906;DHT22;8051;50.820;4.884;2023-10-31T13:42:58;12.00;99.90
15906;DHT22;8051;50.820;4.884;2023-10-31T13:45:26;12.00;99.90
15906;DHT22;8051;50.820;4.884;2023-10-31T13:47:53;11.90;99.90
15906;DHT22;8051;50.820;4.884;2023-10-31T13:50:20;11.90;99.90
15906;DHT22;8051;50.820;4.884;2023-10-31T13:52:49;11.70;99.90
15906;DHT22;8051;50.820;4.884;2023-10-31T13:55:16;11.60;99.90
15906;DHT22;8051;50.820;4.884;2023-10-31T13:57:46;11.50;99.90
15906;DHT22;8051;50.820;4.884;2023-10-31T14:00:13;11.40;99.90
15906;DHT22;8051;50.820;4.884;2023-10-31T14:02:41;11.40;99.90
15906;DHT22;8051;50.820;4.884;2023-10-31T14:05:08;11.30;99.90
15906;DHT22;8051;50.820;4.884;2023-10-31T14:07:36;11.20;99.90
15906;DHT22;8051;50.820;4.884;2023-10-31T14:10:04;11.20;99.90
15906;DHT22;8051;50.820;4.884;2023-10-31T14:12:32;11.20;99.90
15906;DHT22;8051;50.820;4.884;2023-10-31T14:15:01;11.30;99.90
15906;DHT22;8051;50.820;4.884;2023-10-31T14:17:28;11.30;99.90
15906;DHT22;8051;50.820;4.884;2023-10-31T14:19:56;11.40;99.90
15906;DHT22;8051;50.820;4.884;2023-10-31T14:22:23;11.40;99.90
15906;DHT22;8051;50.820;4.884;2023-10-31T14:24:50;11.50;99.90
15906;DHT22;8051;50.820;4.884;2023-10-31T14:27:18;11.50;99.90
15906;DHT22;8051;50.820;4.884;2023-10-31T14:29:45;11.60;99.90
15906;DHT22;8051;50.820;4.884;2023-10-31T14:32:14;11.50;99.90
15906;DHT22;8051;50.820;4.884;2023-10-31T14:34:42;11.70;99.90
15906;DHT22;8051;50.820;4.884;2023-10-31T14:37:10;11.90;99.90
15906;DHT22;8051;50.820;4.884;2023-10-31T14:39:37;11.90;99.90
15906;DHT22;8051;50.820;4.884;2023-10-31T14:42:05;11.90;99.90
15906;DHT22;8051;50.820;4.884;2023-10-31T14:44:33;11.90;99.90
15906;DHT22;8051;50.820;4.884;2023-10-31T14:47:00;11.90;99.90
15906;DHT22;8051;50.820;4.884;2023-10-31T14:49:29;11.90;99.90
15906;DHT22;8051;50.820;4.884;2023-10-31T14:51:57;11.90;99.90
15906;DHT22;8051;50.820;4.884;2023-10-31T14:54:24;11.90;99.90
15906;DHT22;8051;50.820;4.884;2023-10-31T14:56:52;11.90;99.90
15906;DHT22;8051;50.820;4.884;2023-10-31T14:59:19;11.80;99.90
15906;DHT22;8051;50.820;4.884;2023-10-31T15:01:46;11.70;99.90
15906;DHT22;8051;50.820;4.884;2023-10-31T15:04:14;11.70;99.90
15906;DHT22;8051;50.820;4.884;2023-10-31T15:06:44;11.70;99.90
15906;DHT22;8051;50.820;4.884;2023-10-31T15:09:11;11.70;99.90
15906;DHT22;8051;50.820;4.884;2023-10-31T15:11:39;11.60;99.90
15906;DHT22;8051;50.820;4.884;2023-10-31T15:14:06;11.60;99.90
15906;DHT22;8051;50.820;4.884;2023-10-31T15:16:34;11.60;99.90
15906;DHT22;8051;50.820;4.884;2023-10-31T15:19:02;11.60;99.90
15906;DHT22;8051;50.820;4.884;2023-10-31T15:21:29;11.60;99.90
15906;DHT22;8051;50.820;4.884;2023-10-31T15:23:58;11.50;99.90
15906;DHT22;8051;50.820;4.884;2023-10-31T15:26:26;11.50;99.90
15906;DHT22;8051;50.820;4.884;2023-10-31T15:28:54;11.50;99.90
15906;DHT22;8051;50.820;4.884;2023-10-31T15:31:22;11.50;99.90
15906;DHT22;8051;50.820;4.884;2023-10-31T15:33:50;11.40;99.90
15906;DHT22;8051;50.820;4.884;2023-10-31T15:36:17;11.30;99.90
15906;DHT22;8051;50.820;4.884;2023-10-31T15:38:44;11.40;99.90
15906;DHT22;8051;50.820;4.884;2023-10-31T15:41:13;11.30;99.90
15906;DHT22;8051;50.820;4.884;2023-10-31T15:43:41;11.30;99.90
15906;DHT22;8051;50.820;4.884;2023-10-31T15:46:08;11.30;99.90
15906;DHT22;8051;50.820;4.884;2023-10-31T15:48:36;11.30;99.90
15906;DHT22;8051;50.820;4.884;2023-10-31T15:51:04;11.30;99.90
15906;DHT22;8051;50.820;4.884;2023-10-31T15:53:31;11.30;99.90
15906;DHT22;8051;50.820;4.884;2023-10-31T15:55:59;11.30;99.90
15906;DHT22;8051;50.820;4.884;2023-10-31T15:58:29;11.20;99.90